createdAt,value
2022-08-10T00:01:52.813Z,1.55
2022-08-10T00:04:22.689Z,1.45
2022-08-10T00:06:52.925Z,1.55
2022-08-10T00:09:21.918Z,1.60
2022-08-10T00:11:50.568Z,1.60
2022-08-10T00:14:19.002Z,1.50
2022-08-10T00:16:47.818Z,1.50
2022-08-10T00:19:18.215Z,1.75
2022-08-10T00:21:47.422Z,1.50
2022-08-10T00:24:16.553Z,1.55
2022-08-10T00:28:01.504Z,1.52
2022-08-10T00:29:34.074Z,1.40
2022-08-10T00:32:03.072Z,1.38
2022-08-10T00:34:34.712Z,1.40
2022-08-10T00:37:03.124Z,1.52
2022-08-10T00:39:36.192Z,1.50
2022-08-10T00:42:08.590Z,1.60
2022-08-10T00:44:38.540Z,1.35
2022-08-10T00:47:21.323Z,1.52
2022-08-10T00:49:58.248Z,1.25
2022-08-10T00:52:28.397Z,1.40
2022-08-10T00:54:57.472Z,1.50
2022-08-10T00:57:26.546Z,1.30
2022-08-10T00:59:58.430Z,1.25
2022-08-10T01:02:30.558Z,1.20
2022-08-10T01:05:02.605Z,1.40
2022-08-10T01:07:46.706Z,1.40
2022-08-10T01:10:28.190Z,1.30
2022-08-10T01:13:05.660Z,1.40
2022-08-10T01:15:41.769Z,1.40
2022-08-10T01:18:14.741Z,1.20
2022-08-10T01:20:59.261Z,1.40
2022-08-10T01:23:54.898Z,1.40
2022-08-10T01:26:55.474Z,1.30
2022-08-10T01:29:55.024Z,1.42
2022-08-10T01:32:32.363Z,1.30
2022-08-10T01:35:11.228Z,1.33
2022-08-10T01:37:51.941Z,1.27
2022-08-10T01:40:25.730Z,1.30
2022-08-10T01:42:59.559Z,1.48
2022-08-10T01:45:45.513Z,1.50
2022-08-10T01:48:31.107Z,1.42
2022-08-10T01:51:06.062Z,1.40
2022-08-10T01:53:40.980Z,1.30
2022-08-10T01:56:13.625Z,1.40
2022-08-10T01:58:43.443Z,1.40
2022-08-10T02:01:17.680Z,1.30
2022-08-10T02:04:04.683Z,1.40
2022-08-10T02:06:38.388Z,1.30
2022-08-10T02:09:09.192Z,1.30
2022-08-10T02:11:55.632Z,1.20
2022-08-10T02:14:34.131Z,1.30
2022-08-10T02:17:08.709Z,1.30
2022-08-10T02:19:39.973Z,1.30
2022-08-10T02:22:45.756Z,1.23
2022-08-10T02:25:03.282Z,1.30
2022-08-10T02:27:34.081Z,1.33
2022-08-10T02:30:03.797Z,1.17
2022-08-10T02:32:37.791Z,1.20
2022-08-10T02:35:13.961Z,1.15
2022-08-10T02:37:54.039Z,1.05
2022-08-10T02:45:12.667Z,1.27
2022-08-10T02:45:18.929Z,1.13
2022-08-10T02:46:14.150Z,1.30
2022-08-10T02:48:52.738Z,1.30
2022-08-10T02:54:16.814Z,1.20
2022-08-10T02:56:56.990Z,1.20
2022-08-10T02:59:39.951Z,1.25
2022-08-10T03:02:15.490Z,1.50
2022-08-10T03:04:55.344Z,1.70
2022-08-10T03:07:43.230Z,1.50
2022-08-10T03:10:18.355Z,1.60
2022-08-10T03:12:51.889Z,1.27
2022-08-10T03:15:22.497Z,1.40
2022-08-10T03:17:57.794Z,1.30
2022-08-10T03:20:37.374Z,1.45
2022-08-10T03:23:12.443Z,1.35
2022-08-10T03:25:53.197Z,1.42
2022-08-10T03:28:23.949Z,1.40
2022-08-10T03:30:53.969Z,1.45
2022-08-10T03:33:23.758Z,1.60
2022-08-10T03:36:41.485Z,1.35
2022-08-10T03:38:44.427Z,1.65
2022-08-10T03:41:16.189Z,1.45
2022-08-10T03:43:47.557Z,1.45
2022-08-10T03:46:19.392Z,1.50
2022-08-10T03:48:50.918Z,1.42
2022-08-10T03:51:21.398Z,1.40
2022-08-10T03:54:04.399Z,1.45
2022-08-10T03:56:37.559Z,1.38
2022-08-10T03:59:07.302Z,1.50
2022-08-10T04:02:43.821Z,1.60
2022-08-10T04:04:25.899Z,1.50
2022-08-10T04:06:57.928Z,1.48
2022-08-10T04:09:53.271Z,1.50
2022-08-10T04:12:20.048Z,1.52
2022-08-10T04:14:50.751Z,1.35
2022-08-10T04:17:59.310Z,1.52
2022-08-10T04:20:17.969Z,1.50
2022-08-10T04:22:50.915Z,1.50
2022-08-10T04:25:20.485Z,1.50
2022-08-10T04:27:49.897Z,1.60
2022-08-10T04:30:18.770Z,1.60
2022-08-10T04:32:51.036Z,1.50
2022-08-10T04:35:22.289Z,1.30
2022-08-10T04:37:53.283Z,1.60
2022-08-10T04:40:28.798Z,1.40
2022-08-10T04:43:11.274Z,1.40
2022-08-10T04:45:47.293Z,1.40
2022-08-10T04:48:43.228Z,1.50
2022-08-10T04:51:15.328Z,1.58
2022-08-10T04:54:06.124Z,1.65
2022-08-10T04:56:39.631Z,1.50
2022-08-10T04:59:11.187Z,1.50
2022-08-10T05:02:27.131Z,1.38
2022-08-10T05:04:34.346Z,1.55
2022-08-10T05:07:16.455Z,1.65
2022-08-10T05:10:02.606Z,1.50
2022-08-10T05:12:36.200Z,1.50
2022-08-10T05:15:07.687Z,1.63
2022-08-10T05:17:36.612Z,1.40
2022-08-10T05:20:07.595Z,1.58
2022-08-10T05:22:37.508Z,1.70
2022-08-10T05:25:12.887Z,1.30
2022-08-10T05:27:42.366Z,1.48
2022-08-10T05:30:14.362Z,1.58
2022-08-10T05:32:56.755Z,1.48
2022-08-10T05:35:56.350Z,1.60
2022-08-10T05:38:23.427Z,1.55
2022-08-10T05:40:53.717Z,1.50
2022-08-10T05:43:28.272Z,1.70
2022-08-10T05:46:18.958Z,1.42
2022-08-10T05:48:59.569Z,1.60
2022-08-10T05:51:33.352Z,1.52
2022-08-10T05:54:06.819Z,1.40
2022-08-10T05:56:53.809Z,1.40
2022-08-10T06:00:29.388Z,1.58
2022-08-10T06:02:41.306Z,1.40
2022-08-10T06:05:12.418Z,1.42
2022-08-10T06:07:43.613Z,1.40
2022-08-10T06:10:31.371Z,1.50
2022-08-10T06:13:30.087Z,1.50
2022-08-10T06:16:08.005Z,1.50
2022-08-10T06:18:37.351Z,1.60
2022-08-10T06:21:06.780Z,1.50
2022-08-10T06:23:35.704Z,1.45
2022-08-10T06:26:10.993Z,1.63
2022-08-10T06:28:56.049Z,1.70
2022-08-10T06:31:48.364Z,1.55
2022-08-10T06:34:22.174Z,1.55
2022-08-10T06:36:52.922Z,1.48
2022-08-10T06:39:34.175Z,1.50
2022-08-10T06:42:15.506Z,1.60
2022-08-10T06:44:58.527Z,1.67
2022-08-10T06:47:33.391Z,1.60
2022-08-10T06:50:09.403Z,1.60
2022-08-10T06:52:39.170Z,1.60
2022-08-10T06:55:11.972Z,1.67
2022-08-10T06:57:45.806Z,1.88
2022-08-10T07:00:33.844Z,1.70
2022-08-10T07:03:08.111Z,1.70
2022-08-10T07:05:40.489Z,1.80
2022-08-10T07:10:46.134Z,1.73
2022-08-10T07:14:17.237Z,1.73
2022-08-10T07:16:12.207Z,1.65
2022-08-10T07:18:43.383Z,1.50
2022-08-10T07:21:14.383Z,1.55
2022-08-10T07:23:59.272Z,1.60
2022-08-10T07:26:31.298Z,1.70
2022-08-10T07:29:01.450Z,2.20
2022-08-10T07:31:57.371Z,2.17
2022-08-10T07:34:29.805Z,2.13
2022-08-10T07:37:03.092Z,1.60
2022-08-10T07:39:59.603Z,1.80
2022-08-10T07:42:31.333Z,1.70
2022-08-10T07:45:00.335Z,1.70
2022-08-10T07:47:53.957Z,1.83
2022-08-10T07:50:26.442Z,1.70
2022-08-10T07:52:58.081Z,1.70
2022-08-10T07:56:05.054Z,1.80
2022-08-10T07:58:18.534Z,2.00
2022-08-10T08:00:53.189Z,2.03
2022-08-10T08:03:27.370Z,2.35
2022-08-10T08:06:03.123Z,2.05
2022-08-10T08:08:38.978Z,1.77
2022-08-10T08:11:08.844Z,2.13
2022-08-10T08:13:39.674Z,1.90
2022-08-10T08:16:18.097Z,1.90
2022-08-10T08:24:10.687Z,2.28
2022-08-10T08:24:38.928Z,2.00
2022-08-10T08:27:08.638Z,2.10
2022-08-10T08:29:43.182Z,2.10
2022-08-10T08:32:12.737Z,2.10
2022-08-10T08:34:47.334Z,2.17
2022-08-10T08:37:18.850Z,2.10
2022-08-10T08:40:11.564Z,2.30
2022-08-10T08:42:55.980Z,2.65
2022-08-10T08:45:34.416Z,2.60
2022-08-10T08:48:17.344Z,2.30
2022-08-10T08:51:08.631Z,2.40
2022-08-10T08:54:02.679Z,2.38
2022-08-10T08:59:19.087Z,2.30
2022-08-10T09:02:08.136Z,2.38
2022-08-10T09:04:57.279Z,2.35
2022-08-10T09:08:00.126Z,2.28
2022-08-10T09:10:39.531Z,2.40
2022-08-10T09:13:15.036Z,2.10
2022-08-10T09:15:52.605Z,2.40
2022-08-10T09:18:24.942Z,2.05
2022-08-10T09:21:00.129Z,2.75
2022-08-10T09:24:05.177Z,2.30
2022-08-10T09:26:48.244Z,2.10
2022-08-10T09:29:25.960Z,2.10
2022-08-10T09:36:17.198Z,1.90
2022-08-10T09:36:27.004Z,2.20
2022-08-10T09:38:03.508Z,2.40
2022-08-10T09:40:59.482Z,2.20
2022-08-10T09:43:41.822Z,2.10
2022-08-10T09:46:21.392Z,1.90
2022-08-10T09:49:06.857Z,2.60
2022-08-10T09:51:47.900Z,2.20
2022-08-10T09:54:34.104Z,2.20
2022-08-10T09:57:44.422Z,2.42
2022-08-10T10:00:10.933Z,2.42
2022-08-10T10:03:04.530Z,2.20
2022-08-10T10:05:50.394Z,2.20
2022-08-10T10:08:42.793Z,2.20
2022-08-10T10:11:19.033Z,2.33
2022-08-10T10:14:04.577Z,2.50
2022-08-10T10:16:44.630Z,2.50
2022-08-10T10:19:25.621Z,2.20
2022-08-10T10:22:08.900Z,2.40
2022-08-10T10:24:46.648Z,2.40
2022-08-10T10:27:23.892Z,2.30
2022-08-10T10:30:03.252Z,2.40
2022-08-10T10:32:45.890Z,2.20
2022-08-10T10:35:24.522Z,2.40
2022-08-10T10:38:01.297Z,2.33
2022-08-10T10:40:40.423Z,2.10
2022-08-10T10:43:27.170Z,2.33
2022-08-10T10:46:07.304Z,2.00
2022-08-10T10:48:42.568Z,2.25
2022-08-10T10:51:17.856Z,2.80
2022-08-10T10:53:54.286Z,2.70
2022-08-10T10:56:31.844Z,2.25
2022-08-10T10:59:53.924Z,2.33
2022-08-10T11:02:22.436Z,2.25
2022-08-10T11:05:03.745Z,2.50
2022-08-10T11:07:38.504Z,2.25
2022-08-10T11:10:32.764Z,2.20
2022-08-10T11:14:27.631Z,2.10
2022-08-10T11:16:17.947Z,2.10
2022-08-10T11:19:04.526Z,2.08
2022-08-10T11:21:44.194Z,2.10
2022-08-10T11:24:47.112Z,2.60
2022-08-10T11:27:22.217Z,2.05
2022-08-10T11:30:01.694Z,2.10
2022-08-10T11:32:38.099Z,2.08
2022-08-10T11:35:21.453Z,1.95
2022-08-10T11:38:30.926Z,2.42
2022-08-10T11:41:00.090Z,2.17
2022-08-10T11:43:57.959Z,2.70
2022-08-10T11:46:35.568Z,2.13
2022-08-10T11:49:09.476Z,2.25
2022-08-10T11:54:30.349Z,2.13
2022-08-10T11:57:02.883Z,2.10
2022-08-10T11:59:57.911Z,2.00
2022-08-10T12:02:33.816Z,2.05
2022-08-10T12:05:09.005Z,2.20
2022-08-10T12:10:03.548Z,2.30
2022-08-10T12:13:12.492Z,2.08
2022-08-10T12:15:59.153Z,2.17
2022-08-10T12:18:35.004Z,2.30
2022-08-10T12:21:23.365Z,2.03
2022-08-10T12:24:02.489Z,2.28
2022-08-10T12:26:38.817Z,2.20
2022-08-10T12:29:15.400Z,2.30
2022-08-10T12:31:49.586Z,2.17
2022-08-10T12:34:24.386Z,2.03
2022-08-10T12:37:01.723Z,2.22
2022-08-10T12:39:44.538Z,2.03
2022-08-10T12:42:37.066Z,1.95
2022-08-10T12:45:21.978Z,2.47
2022-08-10T12:47:59.797Z,2.70
2022-08-10T12:50:39.549Z,2.05
2022-08-10T12:53:18.849Z,2.10
2022-08-10T12:55:50.820Z,2.22
2022-08-10T12:58:57.564Z,2.15
2022-08-10T13:01:16.920Z,1.80
2022-08-10T13:04:21.541Z,2.10
2022-08-10T13:06:41.578Z,2.05
2022-08-10T13:09:10.381Z,2.20
2022-08-10T13:12:34.808Z,2.10
2022-08-10T13:14:39.481Z,2.15
2022-08-10T13:17:09.196Z,2.00
2022-08-10T13:19:56.321Z,2.17
2022-08-10T13:22:31.480Z,2.00
2022-08-10T13:25:04.078Z,2.20
2022-08-10T13:28:00.615Z,1.65
2022-08-10T13:30:38.430Z,1.75
2022-08-10T13:35:38.498Z,1.80
2022-08-10T13:38:09.342Z,1.88
2022-08-10T13:40:39.800Z,1.80
2022-08-10T13:43:11.304Z,1.80
2022-08-10T13:45:46.267Z,1.85
2022-08-10T13:48:20.885Z,1.85
2022-08-10T13:50:53.269Z,1.70
2022-08-10T13:53:23.368Z,1.67
2022-08-10T13:55:56.554Z,2.00
2022-08-10T14:00:59.965Z,1.70
2022-08-10T14:03:29.905Z,1.80
2022-08-10T14:05:59.577Z,1.73
2022-08-10T14:08:32.282Z,1.80
2022-08-10T14:11:12.711Z,1.50
2022-08-10T14:13:52.539Z,1.92
2022-08-10T14:16:23.730Z,1.65
2022-08-10T14:18:55.414Z,1.63
2022-08-10T14:21:24.001Z,2.00
2022-08-10T14:23:53.851Z,1.88
2022-08-10T14:26:26.388Z,2.15
2022-08-10T14:29:03.237Z,1.95
2022-08-10T14:31:34.450Z,1.77
2022-08-10T14:34:09.284Z,1.88
2022-08-10T14:36:43.251Z,2.17
2022-08-10T14:39:20.487Z,1.90
2022-08-10T14:42:01.355Z,1.92
2022-08-10T14:44:47.265Z,2.10
2022-08-10T14:47:51.714Z,1.70
2022-08-10T14:50:08.744Z,1.42
2022-08-10T14:52:44.062Z,1.73
2022-08-10T14:55:19.379Z,1.70
2022-08-10T14:58:19.534Z,1.63
2022-08-10T15:00:43.109Z,2.00
2022-08-10T15:04:02.119Z,1.75
2022-08-10T15:06:17.042Z,1.52
2022-08-10T15:08:47.798Z,1.73
2022-08-10T15:12:15.020Z,1.70
2022-08-10T15:14:33.254Z,1.70
2022-08-10T15:17:00.453Z,1.70
2022-08-10T15:20:02.230Z,1.40
2022-08-10T15:22:37.184Z,1.48
2022-08-10T15:25:18.045Z,1.90
2022-08-10T15:27:54.334Z,1.40
2022-08-10T15:30:31.556Z,1.70
2022-08-10T15:34:02.606Z,1.80
2022-08-10T15:36:35.589Z,1.60
2022-08-10T15:39:16.401Z,1.60
2022-08-10T15:42:03.740Z,1.80
2022-08-10T15:44:38.189Z,1.42
2022-08-10T15:47:10.492Z,1.80
2022-08-10T15:49:48.800Z,1.98
2022-08-10T15:52:39.062Z,1.40
2022-08-10T15:55:42.551Z,1.55
2022-08-10T15:58:07.880Z,1.80
2022-08-10T16:00:45.292Z,1.70
2022-08-10T16:03:23.751Z,1.67
2022-08-10T16:06:01.988Z,1.50
2022-08-10T16:08:55.837Z,1.60
2022-08-10T16:11:38.194Z,1.35
2022-08-10T16:14:12.948Z,1.50
2022-08-10T16:16:43.069Z,1.48
2022-08-10T16:19:23.790Z,1.30
2022-08-10T16:22:34.439Z,1.50
2022-08-10T16:24:58.286Z,1.40
2022-08-10T16:27:29.044Z,1.60
2022-08-10T16:30:00.601Z,1.60
2022-08-10T16:32:31.948Z,1.70
2022-08-10T16:35:08.947Z,1.30
2022-08-10T16:37:58.794Z,1.45
2022-08-10T16:40:30.266Z,1.48
2022-08-10T16:43:01.044Z,1.40
2022-08-10T16:45:36.415Z,1.50
2022-08-10T16:48:07.006Z,1.50
2022-08-10T16:50:41.530Z,1.30
2022-08-10T16:53:15.432Z,1.35
2022-08-10T16:55:50.603Z,1.40
2022-08-10T16:58:22.475Z,1.50
2022-08-10T17:00:51.856Z,1.30
2022-08-10T17:04:08.196Z,1.40
2022-08-10T17:06:23.546Z,1.55
2022-08-10T17:08:56.742Z,1.40
2022-08-10T17:11:31.018Z,1.40
2022-08-10T17:14:00.994Z,1.50
2022-08-10T17:16:35.732Z,1.40
2022-08-10T17:19:08.622Z,1.40
2022-08-10T17:21:51.941Z,1.20
2022-08-10T17:24:27.590Z,1.50
2022-08-10T17:26:59.388Z,1.40
2022-08-10T17:29:58.279Z,1.38
2022-08-10T17:32:33.094Z,1.20
2022-08-10T17:35:16.130Z,1.40
2022-08-10T17:40:22.349Z,1.50
2022-08-10T17:42:51.950Z,1.48
2022-08-10T17:45:47.841Z,1.50
2022-08-10T17:48:12.239Z,1.40
2022-08-10T17:50:42.781Z,1.45
2022-08-10T17:53:17.115Z,1.48
2022-08-10T17:55:49.483Z,1.63
2022-08-10T17:58:20.911Z,1.50
2022-08-10T18:00:52.158Z,1.60
2022-08-10T18:03:25.253Z,1.33
2022-08-10T18:08:28.833Z,1.30
2022-08-10T18:10:59.985Z,1.40
2022-08-10T18:13:55.879Z,1.98
2022-08-10T18:16:25.828Z,1.30
2022-08-10T18:19:00.092Z,1.30
2022-08-10T18:21:31.911Z,1.38
2022-08-10T18:24:04.497Z,1.40
2022-08-10T18:26:38.412Z,1.50
2022-08-10T18:31:39.751Z,1.50
2022-08-10T18:34:12.947Z,1.40
2022-08-10T18:36:43.267Z,1.40
2022-08-10T18:39:13.701Z,1.40
2022-08-10T18:42:00.789Z,1.33
2022-08-10T18:44:37.253Z,1.55
2022-08-10T18:47:10.710Z,1.55
2022-08-10T18:49:51.348Z,1.42
2022-08-10T18:52:24.035Z,1.50
2022-08-10T18:54:56.839Z,1.10
2022-08-10T18:57:41.859Z,1.33
2022-08-10T19:00:12.985Z,1.50
2022-08-10T19:03:01.701Z,1.30
2022-08-10T19:05:48.536Z,1.52
2022-08-10T19:08:49.091Z,1.27
2022-08-10T19:11:28.394Z,1.30
2022-08-10T19:14:03.901Z,1.45
2022-08-10T19:16:42.081Z,1.30
2022-08-10T19:19:30.101Z,1.38
2022-08-10T19:22:05.665Z,1.30
2022-08-10T19:24:47.027Z,1.35
2022-08-10T19:27:30.095Z,1.40
2022-08-10T19:30:11.636Z,1.30
2022-08-10T19:33:07.161Z,1.40
2022-08-10T19:36:03.051Z,1.35
2022-08-10T19:38:50.301Z,1.30
2022-08-10T19:41:32.481Z,1.40
2022-08-10T19:44:16.595Z,1.50
2022-08-10T19:46:55.884Z,1.40
2022-08-10T19:49:39.933Z,1.40
2022-08-10T19:52:15.171Z,1.30
2022-08-10T19:54:56.618Z,1.40
2022-08-10T19:57:34.484Z,1.40
2022-08-10T20:00:19.309Z,1.40
2022-08-10T20:03:12.196Z,1.38
2022-08-10T20:06:12.961Z,1.30
2022-08-10T20:08:45.193Z,1.50
2022-08-10T20:11:46.155Z,1.30
2022-08-10T20:14:22.314Z,1.38
2022-08-10T20:16:55.965Z,1.40
2022-08-10T20:19:53.977Z,1.73
2022-08-10T20:22:29.388Z,1.63
2022-08-10T20:25:05.269Z,1.70
2022-08-10T20:27:58.947Z,1.73
2022-08-10T20:30:30.026Z,1.60
2022-08-10T20:33:05.279Z,1.50
2022-08-10T20:35:48.386Z,1.80
2022-08-10T20:38:27.150Z,1.60
2022-08-10T20:41:07.200Z,1.60
2022-08-10T20:43:42.670Z,1.80
2022-08-10T20:46:25.494Z,1.80
2022-08-10T20:49:00.500Z,1.35
2022-08-10T20:51:58.723Z,1.70
2022-08-10T20:54:32.899Z,1.50
2022-08-10T20:57:55.135Z,1.67
2022-08-10T21:00:13.783Z,1.50
2022-08-10T21:03:20.738Z,1.52
2022-08-10T21:05:59.910Z,1.60
2022-08-10T21:08:42.998Z,1.40
2022-08-10T21:11:19.696Z,1.60
2022-08-10T21:14:01.963Z,1.65
2022-08-10T21:16:41.619Z,1.40
2022-08-10T21:19:35.991Z,1.63
2022-08-10T21:22:15.595Z,1.48
2022-08-10T21:24:52.202Z,1.30
2022-08-10T21:27:41.271Z,1.70
2022-08-10T21:30:11.055Z,1.50
2022-08-10T21:32:48.839Z,1.40
2022-08-10T21:35:37.461Z,1.50
2022-08-10T21:38:16.737Z,1.52
2022-08-10T21:41:17.862Z,1.60
2022-08-10T21:44:16.612Z,1.40
2022-08-10T21:47:10.118Z,1.23
2022-08-10T21:50:07.500Z,1.60
2022-08-10T21:53:04.256Z,1.40
2022-08-10T21:56:02.463Z,1.48
2022-08-10T21:58:54.271Z,1.50
2022-08-10T22:01:51.431Z,1.60
2022-08-10T22:04:40.184Z,1.42
2022-08-10T22:07:36.250Z,1.30
2022-08-10T22:10:25.885Z,1.40
2022-08-10T22:13:19.922Z,1.50
2022-08-10T22:16:12.199Z,1.30
2022-08-10T22:19:14.554Z,1.20
2022-08-10T22:22:26.903Z,1.35
2022-08-10T22:25:31.930Z,1.25
2022-08-10T22:28:19.564Z,1.25
2022-08-10T22:31:30.879Z,1.20
2022-08-10T22:34:33.417Z,1.38
2022-08-10T22:37:33.999Z,1.20
2022-08-10T22:40:25.676Z,1.20
2022-08-10T22:43:14.425Z,1.45
2022-08-10T22:46:24.953Z,1.23
2022-08-10T22:49:01.764Z,1.13
2022-08-10T22:51:38.234Z,1.40
2022-08-10T22:54:31.922Z,1.30
2022-08-10T22:57:19.840Z,1.20
2022-08-10T22:59:50.191Z,1.20
2022-08-10T23:02:31.623Z,1.33
2022-08-10T23:05:11.622Z,1.30
2022-08-10T23:07:48.295Z,1.30
2022-08-10T23:10:22.566Z,1.40
2022-08-10T23:15:44.132Z,1.27
2022-08-10T23:18:37.557Z,1.40
2022-08-10T23:21:12.259Z,1.15
2022-08-10T23:23:43.580Z,1.20
2022-08-10T23:26:16.162Z,1.20
2022-08-10T23:28:59.217Z,1.33
2022-08-10T23:32:00.890Z,1.40
2022-08-10T23:34:27.645Z,1.20
2022-08-10T23:36:58.436Z,1.40
2022-08-10T23:39:35.565Z,1.30
2022-08-10T23:42:08.451Z,1.30
2022-08-10T23:44:45.711Z,1.58
2022-08-10T23:47:16.895Z,1.30
2022-08-10T23:49:50.949Z,1.40
2022-08-10T23:52:23.402Z,1.30
2022-08-10T23:54:57.074Z,1.25
2022-08-10T23:57:28.766Z,1.23
